Nanuet, NY (10954)

3:12 PM EST on February 08, 2016 (GMT -0500)
West Nyack | | Change Station
CLOSE
Current Station
Personal Weather Station
Location: West Nyack, NY
Elevation: 295 ft
Nearby Weather Stations

Elev 295 ft 41.09 °N, 73.99 °W | Updated 7 minutes ago

Overcast
Overcast
33.4 °F
Feels Like 31 °F
N
3.1
Wind Variable Wind from WNW

Today
High -- | Low -- °F
--% Chance of Precip.
Yesterday
High -- | Low -- °F
Precip. -- in
Pressure 29.74 in
Visibility 5.0 miles
Clouds Mostly Cloudy 1000 ft
Mostly Cloudy 2000 ft
Windchill 31 °F
Dew Point 23 °F
Humidity 65%
Rainfall 0.00 in
Snow Depth Not available.
6:59 AM 5:21 PM
New Moon, 0% visible
METAR KHPN 081956Z 36007KT 5SM BR BKN010 BKN020 M02/M06 A2971 RMK AO2 SNE31 SLP069 P0000 T10171056
Pressure 29.74 in
Visibility 5.0 miles
Clouds Mostly Cloudy 1000 ft
Mostly Cloudy 2000 ft
Windchill 31 °F
Dew Point 23 °F
Humidity 65%
Rainfall 0.00 in
Snow Depth Not available.
6:59 AM 5:21 PM
New Moon, 0% visible
METAR KHPN 081956Z 36007KT 5SM BR BKN010 BKN020 M02/M06 A2971 RMK AO2 SNE31 SLP069 P0000 T10171056
Winter Storm will continue impacting eastern New England through Monday night with a combination of heavy snow and strong winds, resulting in dangerous travel conditions. In parts of southeast Massachusetts, blizzard conditions are possible along with tree damage, some power outages and coastal flooding. As of late Monday morning, winds had gusted up to 57 mph on Nantucket Island and coastal flooding was reported in several locations along the Massachusetts coast.

10-Day Weather Forecast

Almanac

Astronomy

Feb. 08, 2016 Rise Set
Actual Time
Civil Twilight
Nautical Twilight
Astronomical Twilight
Moon
Length of Visible Light
Length of Day
Tomorrow will be .
, % of the Moon is Illuminated

Today's Extremes

State Highs State Lows

Community

WunderPhotos

Upload Photos

1,891,503 photos uploaded!

WunderBlog® & News

Nearby

Air Quality

  Air Quality AQ Index Pollutant
Not available.

Snow Depth

Station Depth Elevation

Earthquake Activity

City Distance Mag. Time & Date
Minimum magnitude displayed is 2.5.

Coastal Water Temperatures

Place Temperature

Stations

Nearby Weather Stations

Station Location Temp. Windchill Dew Point Humidity Wind Precip. Elev Updated Type
                   

Watches & Warnings

There are currently no watches in effect.